Bristol, New Hampshire
Current Conditions -  °F | °C
As of 2:55 PM on Sunday 21 Dec 2014 (Local Time) from K1P1 Reporting Station
Overcast Overcast  
Wind Chill:   Ceiling: 5000
Heat Index:   Visibility: 10mi
Dew Point: -2°   Wind: 0mph
Humidity: 87%   Direction: NA
Pressure: 30.3"   Gusts: NA
Location:  43.6°N, 71.75°W
Report Text: K1P1 211955Z AUTO 00000KT 10SM SCT042 BKN050 OVC080 00/M02 A3030 RMK AO2 T10051024
Loading
Personal Weather Stations






























Interactive Weather Map New forecast layout! Learn more

10-Day Weather Forecast

Advertisements
Track Severe Weather on mobile